sensor_id;sensor_type;location;lat;lon;timestamp;P1;durP1;ratioP1;P2;durP2;ratioP2
22007;SDS011;11168;56.976;24.168;2023-02-01T00:00:30;10.05;;;3.45;;
22007;SDS011;11168;56.976;24.168;2023-02-01T00:02:59;12.45;;;3.20;;
22007;SDS011;11168;56.976;24.168;2023-02-01T00:05:26;11.80;;;3.35;;
22007;SDS011;11168;56.976;24.168;2023-02-01T00:07:55;9.35;;;3.10;;
22007;SDS011;11168;56.976;24.168;2023-02-01T00:10:22;15.13;;;4.15;;
22007;SDS011;11168;56.976;24.168;2023-02-01T00:12:49;14.00;;;2.92;;
22007;SDS011;11168;56.976;24.168;2023-02-01T00:15:16;13.07;;;3.00;;
22007;SDS011;11168;56.976;24.168;2023-02-01T00:17:44;9.93;;;3.50;;
22007;SDS011;11168;56.976;24.168;2023-02-01T00:20:11;14.10;;;3.88;;
22007;SDS011;11168;56.976;24.168;2023-02-01T00:22:38;10.43;;;3.38;;
22007;SDS011;11168;56.976;24.168;2023-02-01T00:25:05;11.60;;;3.13;;
22007;SDS011;11168;56.976;24.168;2023-02-01T00:27:32;8.95;;;3.20;;
22007;SDS011;11168;56.976;24.168;2023-02-01T00:29:59;11.30;;;3.75;;
22007;SDS011;11168;56.976;24.168;2023-02-01T00:32:26;13.07;;;3.58;;
22007;SDS011;11168;56.976;24.168;2023-02-01T00:34:53;11.02;;;3.65;;
22007;SDS011;11168;56.976;24.168;2023-02-01T00:37:20;11.50;;;3.50;;
22007;SDS011;11168;56.976;24.168;2023-02-01T00:39:47;9.40;;;3.58;;
22007;SDS011;11168;56.976;24.168;2023-02-01T00:42:15;9.55;;;3.88;;
22007;SDS011;11168;56.976;24.168;2023-02-01T00:44:42;11.55;;;3.50;;
22007;SDS011;11168;56.976;24.168;2023-02-01T00:47:11;9.20;;;3.65;;
22007;SDS011;11168;56.976;24.168;2023-02-01T00:49:38;10.15;;;4.03;;
22007;SDS011;11168;56.976;24.168;2023-02-01T00:52:04;9.20;;;3.67;;
22007;SDS011;11168;56.976;24.168;2023-02-01T00:54:32;11.25;;;3.80;;
22007;SDS011;11168;56.976;24.168;2023-02-01T00:56:59;9.50;;;3.75;;
22007;SDS011;11168;56.976;24.168;2023-02-01T00:59:26;10.95;;;3.50;;
22007;SDS011;11168;56.976;24.168;2023-02-01T01:01:53;13.18;;;3.80;;
22007;SDS011;11168;56.976;24.168;2023-02-01T01:04:20;12.77;;;3.78;;
22007;SDS011;11168;56.976;24.168;2023-02-01T01:06:47;10.25;;;3.83;;
22007;SDS011;11168;56.976;24.168;2023-02-01T01:09:14;10.63;;;3.70;;
22007;SDS011;11168;56.976;24.168;2023-02-01T01:11:41;11.20;;;3.97;;
22007;SDS011;11168;56.976;24.168;2023-02-01T01:14:08;8.82;;;3.88;;
22007;SDS011;11168;56.976;24.168;2023-02-01T01:16:36;7.57;;;3.80;;
22007;SDS011;11168;56.976;24.168;2023-02-01T01:19:03;10.07;;;4.00;;
22007;SDS011;11168;56.976;24.168;2023-02-01T01:21:30;9.68;;;3.67;;
22007;SDS011;11168;56.976;24.168;2023-02-01T01:23:57;10.60;;;3.72;;
22007;SDS011;11168;56.976;24.168;2023-02-01T01:26:25;7.57;;;3.60;;
22007;SDS011;11168;56.976;24.168;2023-02-01T01:28:54;8.90;;;3.67;;
22007;SDS011;11168;56.976;24.168;2023-02-01T01:31:22;7.95;;;3.63;;
22007;SDS011;11168;56.976;24.168;2023-02-01T01:33:51;8.88;;;3.95;;
22007;SDS011;11168;56.976;24.168;2023-02-01T01:36:19;11.48;;;4.25;;
22007;SDS011;11168;56.976;24.168;2023-02-01T01:38:47;6.68;;;3.95;;
22007;SDS011;11168;56.976;24.168;2023-02-01T01:41:15;9.90;;;3.58;;
22007;SDS011;11168;56.976;24.168;2023-02-01T01:46:26;9.93;;;3.63;;
22007;SDS011;11168;56.976;24.168;2023-02-01T01:49:01;11.38;;;3.88;;
22007;SDS011;11168;56.976;24.168;2023-02-01T01:51:49;6.85;;;3.28;;
22007;SDS011;11168;56.976;24.168;2023-02-01T01:54:22;9.23;;;3.90;;
22007;SDS011;11168;56.976;24.168;2023-02-01T01:56:54;8.88;;;3.95;;
22007;SDS011;11168;56.976;24.168;2023-02-01T01:59:24;9.40;;;4.45;;
22007;SDS011;11168;56.976;24.168;2023-02-01T02:01:52;9.80;;;4.00;;
22007;SDS011;11168;56.976;24.168;2023-02-01T02:04:19;9.05;;;4.07;;
22007;SDS011;11168;56.976;24.168;2023-02-01T02:07:05;10.68;;;4.18;;
22007;SDS011;11168;56.976;24.168;2023-02-01T02:09:38;10.10;;;4.45;;
22007;SDS011;11168;56.976;24.168;2023-02-01T02:12:13;8.93;;;4.40;;
22007;SDS011;11168;56.976;24.168;2023-02-01T02:14:40;9.52;;;4.43;;
22007;SDS011;11168;56.976;24.168;2023-02-01T02:20:06;7.80;;;4.35;;
22007;SDS011;11168;56.976;24.168;2023-02-01T02:28:13;21.40;;;8.68;;
22007;SDS011;11168;56.976;24.168;2023-02-01T02:45:11;13.40;;;6.03;;
22007;SDS011;11168;56.976;24.168;2023-02-01T02:48:22;11.48;;;5.72;;
22007;SDS011;11168;56.976;24.168;2023-02-01T02:50:59;11.52;;;6.85;;
22007;SDS011;11168;56.976;24.168;2023-02-01T02:53:55;11.48;;;7.15;;
22007;SDS011;11168;56.976;24.168;2023-02-01T02:56:51;10.88;;;6.70;;
22007;SDS011;11168;56.976;24.168;2023-02-01T02:59:40;10.77;;;6.10;;
22007;SDS011;11168;56.976;24.168;2023-02-01T03:02:27;8.80;;;6.00;;
22007;SDS011;11168;56.976;24.168;2023-02-01T03:05:14;9.70;;;5.50;;
22007;SDS011;11168;56.976;24.168;2023-02-01T03:10:24;9.00;;;5.57;;
22007;SDS011;11168;56.976;24.168;2023-02-01T03:13:04;11.55;;;6.35;;
22007;SDS011;11168;56.976;24.168;2023-02-01T03:15:47;9.95;;;5.25;;
22007;SDS011;11168;56.976;24.168;2023-02-01T03:18:36;9.73;;;5.60;;
22007;SDS011;11168;56.976;24.168;2023-02-01T03:21:13;9.23;;;5.35;;
22007;SDS011;11168;56.976;24.168;2023-02-01T03:23:48;10.05;;;5.18;;
22007;SDS011;11168;56.976;24.168;2023-02-01T03:26:17;8.35;;;5.30;;
22007;SDS011;11168;56.976;24.168;2023-02-01T03:28:52;11.10;;;5.72;;
22007;SDS011;11168;56.976;24.168;2023-02-01T03:31:23;10.27;;;5.35;;
22007;SDS011;11168;56.976;24.168;2023-02-01T03:33:50;10.25;;;5.65;;
22007;SDS011;11168;56.976;24.168;2023-02-01T03:36:31;7.35;;;4.88;;
22007;SDS011;11168;56.976;24.168;2023-02-01T03:39:22;8.73;;;5.05;;
22007;SDS011;11168;56.976;24.168;2023-02-01T03:41:55;7.15;;;4.85;;
22007;SDS011;11168;56.976;24.168;2023-02-01T03:52:36;11.27;;;6.38;;
22007;SDS011;11168;56.976;24.168;2023-02-01T03:55:05;10.85;;;6.30;;
22007;SDS011;11168;56.976;24.168;2023-02-01T03:57:34;13.27;;;6.13;;
22007;SDS011;11168;56.976;24.168;2023-02-01T04:00:05;12.38;;;7.03;;
22007;SDS011;11168;56.976;24.168;2023-02-01T04:02:34;10.98;;;7.07;;
22007;SDS011;11168;56.976;24.168;2023-02-01T04:05:01;12.00;;;7.32;;
22007;SDS011;11168;56.976;24.168;2023-02-01T04:07:28;10.75;;;7.25;;
22007;SDS011;11168;56.976;24.168;2023-02-01T04:09:55;11.80;;;7.03;;
22007;SDS011;11168;56.976;24.168;2023-02-01T04:12:24;12.32;;;7.30;;
22007;SDS011;11168;56.976;24.168;2023-02-01T04:14:51;11.18;;;7.07;;
22007;SDS011;11168;56.976;24.168;2023-02-01T04:17:18;11.82;;;7.22;;
22007;SDS011;11168;56.976;24.168;2023-02-01T04:19:45;13.82;;;7.22;;
22007;SDS011;11168;56.976;24.168;2023-02-01T04:22:12;15.43;;;7.68;;
22007;SDS011;11168;56.976;24.168;2023-02-01T04:24:44;12.10;;;7.55;;
22007;SDS011;11168;56.976;24.168;2023-02-01T04:27:11;11.23;;;6.80;;
22007;SDS011;11168;56.976;24.168;2023-02-01T04:29:38;11.23;;;6.60;;
22007;SDS011;11168;56.976;24.168;2023-02-01T04:32:05;13.82;;;7.90;;
22007;SDS011;11168;56.976;24.168;2023-02-01T04:34:32;11.15;;;6.82;;
22007;SDS011;11168;56.976;24.168;2023-02-01T04:36:59;12.38;;;7.20;;
22007;SDS011;11168;56.976;24.168;2023-02-01T04:39:26;12.50;;;7.15;;
22007;SDS011;11168;56.976;24.168;2023-02-01T04:41:53;12.88;;;6.93;;
22007;SDS011;11168;56.976;24.168;2023-02-01T04:44:20;12.10;;;7.30;;
22007;SDS011;11168;56.976;24.168;2023-02-01T04:46:47;11.20;;;7.25;;
22007;SDS011;11168;56.976;24.168;2023-02-01T04:49:14;11.63;;;7.18;;
22007;SDS011;11168;56.976;24.168;2023-02-01T04:51:42;11.00;;;6.80;;
22007;SDS011;11168;56.976;24.168;2023-02-01T04:54:09;11.80;;;6.95;;
22007;SDS011;11168;56.976;24.168;2023-02-01T04:56:39;10.85;;;6.90;;
22007;SDS011;11168;56.976;24.168;2023-02-01T04:59:06;11.82;;;7.30;;
22007;SDS011;11168;56.976;24.168;2023-02-01T05:01:33;12.40;;;7.43;;
22007;SDS011;11168;56.976;24.168;2023-02-01T05:04:00;14.20;;;7.25;;
22007;SDS011;11168;56.976;24.168;2023-02-01T05:06:27;13.88;;;7.45;;
22007;SDS011;11168;56.976;24.168;2023-02-01T05:08:54;15.23;;;8.05;;
22007;SDS011;11168;56.976;24.168;2023-02-01T05:11:21;13.98;;;8.10;;
22007;SDS011;11168;56.976;24.168;2023-02-01T05:14:06;12.35;;;7.20;;
22007;SDS011;11168;56.976;24.168;2023-02-01T05:16:33;12.00;;;7.82;;
22007;SDS011;11168;56.976;24.168;2023-02-01T05:19:00;12.88;;;8.43;;
22007;SDS011;11168;56.976;24.168;2023-02-01T05:21:27;15.77;;;7.80;;
22007;SDS011;11168;56.976;24.168;2023-02-01T05:23:54;19.40;;;9.07;;
22007;SDS011;11168;56.976;24.168;2023-02-01T05:26:36;18.30;;;9.40;;
22007;SDS011;11168;56.976;24.168;2023-02-01T05:29:04;22.50;;;11.07;;
22007;SDS011;11168;56.976;24.168;2023-02-01T05:31:32;21.63;;;10.55;;
22007;SDS011;11168;56.976;24.168;2023-02-01T05:33:59;16.33;;;9.30;;
22007;SDS011;11168;56.976;24.168;2023-02-01T05:36:26;16.58;;;9.20;;
22007;SDS011;11168;56.976;24.168;2023-02-01T05:38:54;20.52;;;9.77;;
22007;SDS011;11168;56.976;24.168;2023-02-01T05:41:20;17.58;;;9.60;;
22007;SDS011;11168;56.976;24.168;2023-02-01T05:43:47;17.20;;;8.75;;
22007;SDS011;11168;56.976;24.168;2023-02-01T05:46:14;15.18;;;8.38;;
22007;SDS011;11168;56.976;24.168;2023-02-01T05:48:42;15.88;;;8.40;;
22007;SDS011;11168;56.976;24.168;2023-02-01T05:51:09;15.00;;;8.18;;
22007;SDS011;11168;56.976;24.168;2023-02-01T05:53:37;15.65;;;8.23;;
22007;SDS011;11168;56.976;24.168;2023-02-01T05:56:04;16.55;;;7.75;;
22007;SDS011;11168;56.976;24.168;2023-02-01T05:58:32;14.68;;;8.68;;
22007;SDS011;11168;56.976;24.168;2023-02-01T06:01:00;14.80;;;8.05;;
22007;SDS011;11168;56.976;24.168;2023-02-01T06:03:29;15.20;;;7.82;;
22007;SDS011;11168;56.976;24.168;2023-02-01T06:05:56;14.93;;;7.72;;
22007;SDS011;11168;56.976;24.168;2023-02-01T06:08:23;12.55;;;7.60;;
22007;SDS011;11168;56.976;24.168;2023-02-01T06:10:59;14.68;;;8.25;;
22007;SDS011;11168;56.976;24.168;2023-02-01T06:13:27;15.45;;;7.30;;
22007;SDS011;11168;56.976;24.168;2023-02-01T06:15:54;16.35;;;7.88;;
22007;SDS011;11168;56.976;24.168;2023-02-01T06:18:22;14.52;;;7.32;;
22007;SDS011;11168;56.976;24.168;2023-02-01T06:20:57;12.45;;;7.45;;
22007;SDS011;11168;56.976;24.168;2023-02-01T06:23:28;11.90;;;7.47;;
22007;SDS011;11168;56.976;24.168;2023-02-01T06:26:00;12.27;;;7.03;;
22007;SDS011;11168;56.976;24.168;2023-02-01T06:28:29;11.82;;;6.82;;
22007;SDS011;11168;56.976;24.168;2023-02-01T06:30:57;13.73;;;6.10;;
22007;SDS011;11168;56.976;24.168;2023-02-01T06:33:24;12.55;;;6.95;;
22007;SDS011;11168;56.976;24.168;2023-02-01T06:35:58;14.77;;;7.10;;
22007;SDS011;11168;56.976;24.168;2023-02-01T06:38:26;13.65;;;7.00;;
22007;SDS011;11168;56.976;24.168;2023-02-01T06:40:53;13.25;;;6.63;;
22007;SDS011;11168;56.976;24.168;2023-02-01T06:43:22;13.95;;;6.88;;
22007;SDS011;11168;56.976;24.168;2023-02-01T06:45:49;15.43;;;6.95;;
22007;SDS011;11168;56.976;24.168;2023-02-01T06:48:17;11.00;;;6.35;;
22007;SDS011;11168;56.976;24.168;2023-02-01T06:50:44;14.32;;;6.90;;
22007;SDS011;11168;56.976;24.168;2023-02-01T06:53:11;14.45;;;6.72;;
22007;SDS011;11168;56.976;24.168;2023-02-01T06:55:38;13.82;;;6.32;;
22007;SDS011;11168;56.976;24.168;2023-02-01T06:58:05;12.32;;;6.07;;
22007;SDS011;11168;56.976;24.168;2023-02-01T07:00:33;14.80;;;7.15;;
22007;SDS011;11168;56.976;24.168;2023-02-01T07:03:01;14.35;;;6.45;;
22007;SDS011;11168;56.976;24.168;2023-02-01T07:05:28;11.63;;;6.40;;
22007;SDS011;11168;56.976;24.168;2023-02-01T07:07:55;11.73;;;6.50;;
22007;SDS011;11168;56.976;24.168;2023-02-01T07:10:22;11.00;;;6.80;;
22007;SDS011;11168;56.976;24.168;2023-02-01T07:12:49;11.50;;;5.80;;
22007;SDS011;11168;56.976;24.168;2023-02-01T07:15:16;12.63;;;6.43;;
22007;SDS011;11168;56.976;24.168;2023-02-01T07:17:45;12.20;;;5.75;;
22007;SDS011;11168;56.976;24.168;2023-02-01T07:20:13;12.05;;;6.03;;
22007;SDS011;11168;56.976;24.168;2023-02-01T07:22:41;13.98;;;6.32;;
22007;SDS011;11168;56.976;24.168;2023-02-01T07:25:08;14.70;;;6.32;;
22007;SDS011;11168;56.976;24.168;2023-02-01T07:27:35;11.27;;;6.43;;
22007;SDS011;11168;56.976;24.168;2023-02-01T07:30:06;11.48;;;6.88;;
22007;SDS011;11168;56.976;24.168;2023-02-01T07:32:33;18.20;;;6.80;;
22007;SDS011;11168;56.976;24.168;2023-02-01T07:35:00;17.80;;;7.25;;
22007;SDS011;11168;56.976;24.168;2023-02-01T07:37:27;15.70;;;7.15;;
22007;SDS011;11168;56.976;24.168;2023-02-01T07:39:54;17.05;;;7.43;;
22007;SDS011;11168;56.976;24.168;2023-02-01T07:42:21;11.68;;;6.53;;
22007;SDS011;11168;56.976;24.168;2023-02-01T07:44:48;13.20;;;6.18;;
22007;SDS011;11168;56.976;24.168;2023-02-01T07:47:15;11.23;;;6.47;;
22007;SDS011;11168;56.976;24.168;2023-02-01T07:49:42;10.90;;;6.15;;
22007;SDS011;11168;56.976;24.168;2023-02-01T07:52:09;13.95;;;6.40;;
22007;SDS011;11168;56.976;24.168;2023-02-01T07:54:37;11.88;;;6.20;;
22007;SDS011;11168;56.976;24.168;2023-02-01T07:57:04;15.38;;;6.28;;
22007;SDS011;11168;56.976;24.168;2023-02-01T07:59:31;12.43;;;6.90;;
22007;SDS011;11168;56.976;24.168;2023-02-01T08:01:58;10.90;;;6.45;;
22007;SDS011;11168;56.976;24.168;2023-02-01T08:04:25;20.20;;;6.88;;
22007;SDS011;11168;56.976;24.168;2023-02-01T08:06:52;14.40;;;6.50;;
22007;SDS011;11168;56.976;24.168;2023-02-01T08:09:18;16.17;;;6.85;;
22007;SDS011;11168;56.976;24.168;2023-02-01T08:11:45;11.38;;;5.97;;
22007;SDS011;11168;56.976;24.168;2023-02-01T08:14:12;12.05;;;5.85;;
22007;SDS011;11168;56.976;24.168;2023-02-01T08:16:39;13.13;;;6.40;;
22007;SDS011;11168;56.976;24.168;2023-02-01T08:19:06;12.13;;;6.40;;
22007;SDS011;11168;56.976;24.168;2023-02-01T08:21:33;12.50;;;6.43;;
22007;SDS011;11168;56.976;24.168;2023-02-01T08:24:04;14.52;;;6.93;;
22007;SDS011;11168;56.976;24.168;2023-02-01T08:26:35;12.10;;;7.00;;
22007;SDS011;11168;56.976;24.168;2023-02-01T08:29:03;11.27;;;6.70;;
22007;SDS011;11168;56.976;24.168;2023-02-01T08:31:32;13.43;;;7.43;;
22007;SDS011;11168;56.976;24.168;2023-02-01T08:34:00;12.32;;;7.10;;
22007;SDS011;11168;56.976;24.168;2023-02-01T08:36:30;14.80;;;7.43;;
22007;SDS011;11168;56.976;24.168;2023-02-01T08:38:57;13.25;;;6.97;;
22007;SDS011;11168;56.976;24.168;2023-02-01T08:41:25;14.93;;;7.07;;
22007;SDS011;11168;56.976;24.168;2023-02-01T08:43:55;11.32;;;7.10;;
22007;SDS011;11168;56.976;24.168;2023-02-01T08:46:23;17.10;;;6.88;;
22007;SDS011;11168;56.976;24.168;2023-02-01T08:48:51;15.00;;;7.25;;
22007;SDS011;11168;56.976;24.168;2023-02-01T08:51:19;16.58;;;8.10;;
22007;SDS011;11168;56.976;24.168;2023-02-01T08:53:48;16.00;;;7.82;;
22007;SDS011;11168;56.976;24.168;2023-02-01T08:56:16;17.88;;;9.27;;
22007;SDS011;11168;56.976;24.168;2023-02-01T08:58:46;19.88;;;9.25;;
22007;SDS011;11168;56.976;24.168;2023-02-01T09:01:14;18.17;;;9.40;;
22007;SDS011;11168;56.976;24.168;2023-02-01T09:03:43;14.98;;;8.68;;
22007;SDS011;11168;56.976;24.168;2023-02-01T09:06:12;13.23;;;7.45;;
22007;SDS011;11168;56.976;24.168;2023-02-01T09:08:40;18.95;;;7.97;;
22007;SDS011;11168;56.976;24.168;2023-02-01T09:11:10;14.10;;;8.18;;
22007;SDS011;11168;56.976;24.168;2023-02-01T09:13:39;16.17;;;8.65;;
22007;SDS011;11168;56.976;24.168;2023-02-01T09:16:06;19.65;;;8.45;;
22007;SDS011;11168;56.976;24.168;2023-02-01T09:18:33;15.40;;;8.10;;
22007;SDS011;11168;56.976;24.168;2023-02-01T09:21:07;15.45;;;7.95;;
22007;SDS011;11168;56.976;24.168;2023-02-01T09:23:34;15.57;;;7.68;;
22007;SDS011;11168;56.976;24.168;2023-02-01T09:26:02;15.43;;;8.55;;
22007;SDS011;11168;56.976;24.168;2023-02-01T09:28:30;20.13;;;9.07;;
22007;SDS011;11168;56.976;24.168;2023-02-01T09:30:58;16.10;;;8.48;;
22007;SDS011;11168;56.976;24.168;2023-02-01T09:33:26;17.00;;;8.77;;
22007;SDS011;11168;56.976;24.168;2023-02-01T09:35:57;16.80;;;8.50;;
22007;SDS011;11168;56.976;24.168;2023-02-01T09:38:26;13.50;;;8.23;;
22007;SDS011;11168;56.976;24.168;2023-02-01T09:40:54;15.38;;;8.35;;
22007;SDS011;11168;56.976;24.168;2023-02-01T09:46:22;16.67;;;8.40;;
22007;SDS011;11168;56.976;24.168;2023-02-01T09:51:23;18.75;;;8.55;;
22007;SDS011;11168;56.976;24.168;2023-02-01T09:54:04;18.20;;;9.18;;
22007;SDS011;11168;56.976;24.168;2023-02-01T09:56:47;18.15;;;9.02;;
22007;SDS011;11168;56.976;24.168;2023-02-01T10:02:11;18.67;;;9.82;;
22007;SDS011;11168;56.976;24.168;2023-02-01T10:04:49;15.45;;;9.38;;
22007;SDS011;11168;56.976;24.168;2023-02-01T10:10:28;15.90;;;8.57;;
22007;SDS011;11168;56.976;24.168;2023-02-01T10:21:10;18.52;;;8.70;;
22007;SDS011;11168;56.976;24.168;2023-02-01T10:26:45;17.38;;;9.65;;
22007;SDS011;11168;56.976;24.168;2023-02-01T10:29:18;16.17;;;9.65;;
22007;SDS011;11168;56.976;24.168;2023-02-01T10:31:46;13.65;;;8.85;;
22007;SDS011;11168;56.976;24.168;2023-02-01T10:34:25;16.48;;;9.23;;
22007;SDS011;11168;56.976;24.168;2023-02-01T10:37:42;20.90;;;9.88;;
22007;SDS011;11168;56.976;24.168;2023-02-01T10:39:49;19.77;;;9.52;;
22007;SDS011;11168;56.976;24.168;2023-02-01T10:42:20;15.57;;;9.07;;
22007;SDS011;11168;56.976;24.168;2023-02-01T10:44:50;17.75;;;11.05;;
22007;SDS011;11168;56.976;24.168;2023-02-01T10:47:18;21.73;;;10.43;;
22007;SDS011;11168;56.976;24.168;2023-02-01T10:52:20;17.38;;;9.63;;
22007;SDS011;11168;56.976;24.168;2023-02-01T10:58:15;15.70;;;9.60;;
22007;SDS011;11168;56.976;24.168;2023-02-01T11:01:02;20.23;;;9.40;;
22007;SDS011;11168;56.976;24.168;2023-02-01T11:06:10;18.48;;;10.30;;
22007;SDS011;11168;56.976;24.168;2023-02-01T11:08:48;16.48;;;10.02;;
22007;SDS011;11168;56.976;24.168;2023-02-01T11:11:20;23.48;;;11.05;;
22007;SDS011;11168;56.976;24.168;2023-02-01T11:13:58;18.92;;;10.13;;
22007;SDS011;11168;56.976;24.168;2023-02-01T11:16:33;21.45;;;9.90;;
22007;SDS011;11168;56.976;24.168;2023-02-01T11:19:02;18.67;;;9.80;;
22007;SDS011;11168;56.976;24.168;2023-02-01T11:21:29;18.40;;;10.45;;
22007;SDS011;11168;56.976;24.168;2023-02-01T11:24:00;21.83;;;10.80;;
22007;SDS011;11168;56.976;24.168;2023-02-01T11:26:30;20.85;;;11.48;;
22007;SDS011;11168;56.976;24.168;2023-02-01T11:29:01;18.63;;;10.57;;
22007;SDS011;11168;56.976;24.168;2023-02-01T11:31:31;17.88;;;10.75;;
22007;SDS011;11168;56.976;24.168;2023-02-01T11:34:00;22.15;;;11.43;;
22007;SDS011;11168;56.976;24.168;2023-02-01T11:36:38;20.13;;;11.07;;
22007;SDS011;11168;56.976;24.168;2023-02-01T11:44:45;18.75;;;11.65;;
22007;SDS011;11168;56.976;24.168;2023-02-01T11:47:29;20.45;;;12.68;;
22007;SDS011;11168;56.976;24.168;2023-02-01T11:50:00;19.95;;;11.18;;
22007;SDS011;11168;56.976;24.168;2023-02-01T11:55:38;18.33;;;10.32;;
22007;SDS011;11168;56.976;24.168;2023-02-01T12:07:05;17.90;;;10.88;;
22007;SDS011;11168;56.976;24.168;2023-02-01T12:22:36;21.23;;;11.82;;
22007;SDS011;11168;56.976;24.168;2023-02-01T12:44:41;19.48;;;11.48;;
22007;SDS011;11168;56.976;24.168;2023-02-01T12:47:33;21.90;;;12.23;;
22007;SDS011;11168;56.976;24.168;2023-02-01T12:50:12;26.13;;;13.75;;
22007;SDS011;11168;56.976;24.168;2023-02-01T12:53:07;28.88;;;15.05;;
22007;SDS011;11168;56.976;24.168;2023-02-01T12:55:43;28.98;;;15.77;;
22007;SDS011;11168;56.976;24.168;2023-02-01T13:01:01;24.50;;;13.68;;
22007;SDS011;11168;56.976;24.168;2023-02-01T13:06:46;20.73;;;12.15;;
22007;SDS011;11168;56.976;24.168;2023-02-01T13:09:22;23.98;;;13.10;;
22007;SDS011;11168;56.976;24.168;2023-02-01T13:11:57;26.52;;;12.43;;
22007;SDS011;11168;56.976;24.168;2023-02-01T13:14:35;27.60;;;13.75;;
22007;SDS011;11168;56.976;24.168;2023-02-01T13:17:16;24.73;;;13.77;;
22007;SDS011;11168;56.976;24.168;2023-02-01T13:24:55;29.08;;;16.13;;
22007;SDS011;11168;56.976;24.168;2023-02-01T13:27:39;23.02;;;13.27;;
22007;SDS011;11168;56.976;24.168;2023-02-01T13:46:25;29.00;;;14.93;;
22007;SDS011;11168;56.976;24.168;2023-02-01T13:51:34;45.40;;;16.15;;
22007;SDS011;11168;56.976;24.168;2023-02-01T13:54:05;37.42;;;14.98;;
22007;SDS011;11168;56.976;24.168;2023-02-01T13:56:42;33.60;;;16.23;;
22007;SDS011;11168;56.976;24.168;2023-02-01T14:21:19;34.55;;;21.02;;
22007;SDS011;11168;56.976;24.168;2023-02-01T14:26:40;33.28;;;20.08;;
22007;SDS011;11168;56.976;24.168;2023-02-01T14:32:04;31.85;;;17.75;;
22007;SDS011;11168;56.976;24.168;2023-02-01T14:39:53;36.83;;;17.88;;
22007;SDS011;11168;56.976;24.168;2023-02-01T14:45:45;39.83;;;20.20;;
22007;SDS011;11168;56.976;24.168;2023-02-01T14:58:44;66.88;;;35.42;;
22007;SDS011;11168;56.976;24.168;2023-02-01T15:01:27;70.00;;;38.75;;
22007;SDS011;11168;56.976;24.168;2023-02-01T15:08:58;56.30;;;30.23;;
22007;SDS011;11168;56.976;24.168;2023-02-01T15:11:52;48.78;;;26.20;;
22007;SDS011;11168;56.976;24.168;2023-02-01T15:14:33;53.42;;;28.00;;
22007;SDS011;11168;56.976;24.168;2023-02-01T15:17:17;54.35;;;28.15;;
22007;SDS011;11168;56.976;24.168;2023-02-01T15:19:58;49.28;;;26.80;;
22007;SDS011;11168;56.976;24.168;2023-02-01T15:22:30;55.00;;;27.75;;
22007;SDS011;11168;56.976;24.168;2023-02-01T15:24:58;52.90;;;25.98;;
22007;SDS011;11168;56.976;24.168;2023-02-01T15:27:27;52.63;;;28.10;;
22007;SDS011;11168;56.976;24.168;2023-02-01T15:30:04;46.17;;;24.33;;
22007;SDS011;11168;56.976;24.168;2023-02-01T15:32:36;45.97;;;23.80;;
22007;SDS011;11168;56.976;24.168;2023-02-01T15:35:05;47.13;;;23.85;;
22007;SDS011;11168;56.976;24.168;2023-02-01T15:37:52;38.85;;;21.50;;
22007;SDS011;11168;56.976;24.168;2023-02-01T15:40:51;47.35;;;23.92;;
22007;SDS011;11168;56.976;24.168;2023-02-01T15:43:19;53.17;;;23.48;;
22007;SDS011;11168;56.976;24.168;2023-02-01T15:45:46;47.03;;;23.10;;
22007;SDS011;11168;56.976;24.168;2023-02-01T15:48:14;47.17;;;23.08;;
22007;SDS011;11168;56.976;24.168;2023-02-01T15:50:47;45.90;;;23.38;;
22007;SDS011;11168;56.976;24.168;2023-02-01T15:53:16;50.08;;;22.98;;
22007;SDS011;11168;56.976;24.168;2023-02-01T15:55:52;56.58;;;26.75;;
22007;SDS011;11168;56.976;24.168;2023-02-01T15:58:21;61.17;;;29.65;;
22007;SDS011;11168;56.976;24.168;2023-02-01T16:06:08;55.90;;;26.65;;
22007;SDS011;11168;56.976;24.168;2023-02-01T16:08:37;53.17;;;25.75;;
22007;SDS011;11168;56.976;24.168;2023-02-01T16:11:21;50.03;;;25.02;;
22007;SDS011;11168;56.976;24.168;2023-02-01T16:13:54;51.40;;;25.77;;
22007;SDS011;11168;56.976;24.168;2023-02-01T16:16:21;48.72;;;23.55;;
22007;SDS011;11168;56.976;24.168;2023-02-01T16:18:48;45.00;;;22.95;;
22007;SDS011;11168;56.976;24.168;2023-02-01T16:21:15;46.95;;;22.52;;
22007;SDS011;11168;56.976;24.168;2023-02-01T16:23:41;41.60;;;20.98;;
22007;SDS011;11168;56.976;24.168;2023-02-01T16:26:08;41.75;;;20.30;;
22007;SDS011;11168;56.976;24.168;2023-02-01T16:28:37;42.25;;;19.42;;
22007;SDS011;11168;56.976;24.168;2023-02-01T16:31:05;41.08;;;17.95;;
22007;SDS011;11168;56.976;24.168;2023-02-01T16:33:35;32.47;;;16.63;;
22007;SDS011;11168;56.976;24.168;2023-02-01T16:36:02;32.08;;;15.70;;
22007;SDS011;11168;56.976;24.168;2023-02-01T16:38:30;35.90;;;14.85;;
22007;SDS011;11168;56.976;24.168;2023-02-01T16:40:57;37.63;;;15.13;;
22007;SDS011;11168;56.976;24.168;2023-02-01T16:43:25;29.83;;;13.10;;
22007;SDS011;11168;56.976;24.168;2023-02-01T16:45:53;32.88;;;14.05;;
22007;SDS011;11168;56.976;24.168;2023-02-01T16:48:26;29.38;;;14.15;;
22007;SDS011;11168;56.976;24.168;2023-02-01T16:51:02;27.10;;;14.27;;
22007;SDS011;11168;56.976;24.168;2023-02-01T16:53:34;32.13;;;15.07;;
22007;SDS011;11168;56.976;24.168;2023-02-01T16:56:19;30.50;;;13.55;;
22007;SDS011;11168;56.976;24.168;2023-02-01T16:58:48;27.45;;;13.55;;
22007;SDS011;11168;56.976;24.168;2023-02-01T17:01:16;26.23;;;12.90;;
22007;SDS011;11168;56.976;24.168;2023-02-01T17:03:45;31.95;;;14.73;;
22007;SDS011;11168;56.976;24.168;2023-02-01T17:06:16;26.98;;;13.63;;
22007;SDS011;11168;56.976;24.168;2023-02-01T17:08:47;27.23;;;13.88;;
22007;SDS011;11168;56.976;24.168;2023-02-01T17:11:19;27.27;;;13.77;;
22007;SDS011;11168;56.976;24.168;2023-02-01T17:13:46;27.38;;;14.00;;
22007;SDS011;11168;56.976;24.168;2023-02-01T17:19:10;24.25;;;14.18;;
22007;SDS011;11168;56.976;24.168;2023-02-01T17:21:51;30.92;;;14.57;;
22007;SDS011;11168;56.976;24.168;2023-02-01T17:24:21;27.08;;;13.88;;
22007;SDS011;11168;56.976;24.168;2023-02-01T17:26:58;35.83;;;19.38;;
22007;SDS011;11168;56.976;24.168;2023-02-01T17:29:25;27.02;;;14.27;;
22007;SDS011;11168;56.976;24.168;2023-02-01T17:31:55;30.38;;;16.80;;
22007;SDS011;11168;56.976;24.168;2023-02-01T17:34:25;36.25;;;17.65;;
22007;SDS011;11168;56.976;24.168;2023-02-01T17:36:52;37.33;;;19.05;;
22007;SDS011;11168;56.976;24.168;2023-02-01T17:39:20;33.75;;;18.85;;
22007;SDS011;11168;56.976;24.168;2023-02-01T17:42:08;39.70;;;18.63;;
22007;SDS011;11168;56.976;24.168;2023-02-01T17:47:06;35.00;;;18.83;;
22007;SDS011;11168;56.976;24.168;2023-02-01T17:49:32;39.55;;;20.20;;
22007;SDS011;11168;56.976;24.168;2023-02-01T17:52:08;35.13;;;18.75;;
22007;SDS011;11168;56.976;24.168;2023-02-01T17:54:42;37.42;;;18.73;;
22007;SDS011;11168;56.976;24.168;2023-02-01T17:57:12;33.42;;;17.98;;
22007;SDS011;11168;56.976;24.168;2023-02-01T17:59:39;29.38;;;16.88;;
22007;SDS011;11168;56.976;24.168;2023-02-01T18:02:20;32.67;;;15.35;;
22007;SDS011;11168;56.976;24.168;2023-02-01T18:04:49;32.10;;;15.45;;
22007;SDS011;11168;56.976;24.168;2023-02-01T18:07:17;26.52;;;13.80;;
22007;SDS011;11168;56.976;24.168;2023-02-01T18:09:44;28.15;;;14.40;;